• Join FlightAware (Why Join?)
  • Login
  • US Flag 
05:41PM EST


 

Airport Tracker/Info


-or-


 

Live Flight TrackerFlight Track Log ✈ JZA7651 ✈ 26-Jul-2013 ✈ KDCA - CYUL

Flight Track Log - Related Links

Times and Time Zones

All times are in EDT time to prevent confusion due to time zone crossing. See the JZA7651 flight status page for this flight to view local times or setup timezone preferences in your user account.

Time Position Orientation Groundspeed Altitude Reporting Facility
EDT Latitude Longitude Course Direction KTS MPH feet Rate Location/Type
09:01PM 38.7833 -77.0333 342° North 197 227 3,500  Level Potomac TRACON
09:02PM 38.7333 -77.0667 207° Southwest 269 310 5,000 2,100 Climbing Potomac TRACON
09:04PM 38.7167 -77.2667 264° West 288 331 9,900 2,460 Climbing Potomac TRACON
09:05PM 38.7833 -77.3167 330° Northwest 299 344 12,400 2,280 Climbing Potomac TRACON
09:06PM 39.5605 -77.4093 342° North  Level FlightAware Approximate
09:06PM 38.8500 -77.3667 330° Northwest 292 336 14,300  Level Potomac TRACON
09:07PM 38.9500 -77.4167 339° North 281 323 16,400 900 Climbing Potomac TRACON
09:09PM 39.1258 -77.4700 347° North 368 423 17,000 180 Climbing Washington Center
09:10PM 39.2408 -77.4622 North 384 442 17,000 720 Level Washington Center
09:12PM 39.4589 -77.4589 North 413 475 19,200 1,200 Climbing New York Center
09:13PM 39.5714 -77.4589 360° North 406 467 20,700 1,440 Climbing New York Center
09:14PM 39.6842 -77.4561 North 401 461 22,200 1,440 Climbing New York Center
09:15PM 39.7903 -77.4231 13° North 401 461 23,700 1,500 Climbing New York Center
09:16PM 39.8883 -77.3511 29° Northeast 393 452 25,200 1,500 Climbing New York Center
09:17PM 39.9944 -77.3175 14° North 393 452 26,700 1,320 Climbing New York Center
09:18PM 40.0961 -77.2864 13° North 382 440 27,900 1,020 Climbing New York Center
09:19PM 40.1978 -77.2581 12° North 377 434 28,800 840 Climbing New York Center
09:20PM 40.3039 -77.2269 13° North 377 434 29,700 840 Climbing New York Center
09:21PM 40.4078 -77.1931 14° North 382 440 30,500 720 Climbing New York Center
09:22PM 40.5178 -77.1625 12° North 382 440 31,200 600 Climbing New York Center
09:23PM 40.6281 -77.1289 13° North 387 445 31,800 540 Climbing New York Center
09:24PM 40.7361 -77.0950 13° North 393 452 32,400 600 Climbing New York Center
09:25PM 40.8461 -77.0642 12° North 398 458 33,000 300 Climbing New York Center
09:26PM 40.9606 -77.0281 13° North 398 458 33,000  Level New York Center
09:27PM 41.0728 -76.9942 13° North 403 464 33,000  Level New York Center
09:28PM 41.1850 -76.9603 13° North 403 464 33,000  Level New York Center
09:29PM 41.2975 -76.9236 14° North 403 464 33,000  Level New York Center
09:30PM 41.4053 -76.8922 12° North 403 464 33,000  Level New York Center
09:31PM 41.5283 -76.8506 14° North 403 464 33,000  Level New York Center
09:32PM 41.6406 -76.8136 14° North 403 464 33,000  Level New York Center
09:34PM 41.8850 -76.7408 12° North 425 489 33,000  Level Boston Center
09:35PM 41.9969 -76.7064 13° North 425 489 33,000  Level Boston Center
09:36PM 42.1089 -76.6719 13° North 412 474 33,000  Level Boston Center
09:37PM 42.2206 -76.6347 14° North 412 474 33,000  Level Boston Center
09:38PM 42.3600 -76.5906 13° North 423 487 33,000  Level Boston Center
09:39PM 42.4739 -76.5561 13° North 418 481 33,000  Level Boston Center
09:40PM 42.5878 -76.5156 15° North 418 481 33,000  Level Boston Center
09:41PM 42.7269 -76.4739 12° North 418 481 33,000  Level Boston Center
09:42PM 42.8533 -76.4339 13° North 418 481 33,000  Level Boston Center
09:43PM 42.9675 -76.3961 14° North 418 481 33,000  Level Boston Center
09:44PM 43.0833 -76.3581 13° North 418 481 33,000  Level Boston Center
09:45PM 43.1972 -76.3225 13° North 418 481 33,000  Level Boston Center
09:46PM 43.3111 -76.2811 15° North 418 481 33,000  Level Boston Center
09:47PM 43.4250 -76.2456 13° North 418 481 33,000 -120 Level Boston Center
09:48PM 43.5408 -76.2042 15° North 418 481 32,800 -660 Descending Boston Center
09:49PM 43.6569 -76.1683 13° North 418 481 31,700 -1,080 Descending Boston Center
09:50PM 43.7769 -76.1269 14° North 423 487 30,700 -1,020 Descending Boston Center
09:51PM 43.8972 -76.0853 14° North 435 501 29,700 -1,020 Descending Boston Center
09:52PM 44.0075 -76.0197 23° Northeast 435 501 28,700 -900 Descending Boston Center
09:53PM 44.1128 -75.9247 33° Northeast 435 501 28,000 -900 Descending Boston Center
09:54PM 44.2175 -75.8325 32° Northeast 440 506 27,000 -1,020 Descending Boston Center
09:55PM 44.3142 -75.7306 37° Northeast 440 506 26,000 -1,020 Descending Boston Center
09:56PM 44.3992 -75.6044 47° Northeast 440 506 25,000 -1,020 Descending Boston Center
09:57PM 44.4858 -75.4781 46° Northeast 435 501 24,000 -1,020 Descending Boston Center
09:58PM 44.5703 -75.3600 45° Northeast 440 506 23,000 -1,020 Descending Boston Center
09:59PM 44.6567 -75.2331 46° Northeast 440 506 22,000 -1,020 Descending Boston Center
10:00PM 44.7333 -75.1000 51° Northeast 430 495 21,000 -960 Descending Montreal Center
10:01PM 44.8167 -74.9833 45° Northeast 430 495 20,100 -1,020 Descending Montreal Center
10:02PM 44.9000 -74.8500 49° Northeast 430 495 19,000 -1,800 Descending Montreal Center
10:03PM 44.9833 -74.7333 45° Northeast 420 483 16,500 -2,700 Descending Montreal Center
10:04PM 45.0500 -74.6167 51° Northeast 380 437 13,600 -2,880 Descending Montreal Center
10:05PM 45.1167 -74.5167 47° Northeast 350 403 10,800 -1,980 Descending Montreal Center
10:06PM 45.1500 -74.4000 68° East 310 357 9,700 -1,440 Descending Montreal Center
10:07PM 45.2000 -74.2833 59° Northeast 290 334 8,000 -1,620 Descending Montreal Center
10:08PM 45.2333 -74.1833 65° Northeast 280 322 6,500 -1,500 Descending Montreal Center
10:09PM 45.2333 -74.1167 90° East 260 299 5,000 -1,500 Descending Montreal Center
10:10PM 45.2667 -74.0167 65° Northeast 250 288 3,500 -1,020 Descending Montreal Center
10:11PM 45.3000 -73.9500 55° Northeast 210 242 3,000 -420 Descending Montreal Center
10:12PM 45.3500 -73.9000 35° Northeast 200 230 2,700 -660 Descending Montreal Center
10:13PM 45.3833 -73.8167 60° Northeast 200 230 1,700 -960 Descending Montreal Center
10:14PM 45.4167 -73.8000 19° North 150 173 800 -780 Descending Montreal Center
10:15PM 45.4500 -73.7500 46° Northeast 130 150 200 -360 Descending Montreal Center
10:16PM 45.4500 -73.7500 46° Northeast 10 12 100 -120 Descending Montreal Center